createdAt,value
2022-08-10T00:04:54.254Z,72.94
2022-08-10T00:09:56.742Z,73.53
2022-08-10T00:15:00.087Z,73.71
2022-08-10T00:20:08.696Z,73.23
2022-08-10T00:25:11.696Z,72.19
2022-08-10T00:30:14.759Z,73.33
2022-08-10T00:35:18.677Z,72.10
2022-08-10T00:40:21.194Z,73.05
2022-08-10T00:45:40.141Z,74.92
2022-08-10T00:50:43.993Z,75.47
2022-08-10T00:57:12.893Z,75.74
2022-08-10T01:02:07.329Z,75.61
2022-08-10T01:06:39.639Z,75.40
2022-08-10T01:12:37.518Z,74.06
2022-08-10T01:17:14.359Z,76.08
2022-08-10T01:22:34.120Z,75.68
2022-08-10T01:27:43.318Z,74.97
2022-08-10T01:32:54.937Z,73.21
2022-08-10T01:38:04.921Z,74.70
2022-08-10T01:43:11.205Z,77.29
2022-08-10T01:48:32.153Z,77.09
2022-08-10T01:53:40.168Z,76.09
2022-08-10T01:58:45.952Z,78.12
2022-08-10T02:04:04.184Z,78.41
2022-08-10T02:09:09.166Z,77.17
2022-08-10T02:14:14.439Z,78.48
2022-08-10T02:19:20.806Z,78.58
2022-08-10T02:24:25.745Z,77.50
2022-08-10T02:29:29.439Z,76.59
2022-08-10T02:34:34.901Z,76.96
2022-08-10T02:39:38.335Z,76.06
2022-08-10T02:45:19.856Z,77.83
2022-08-10T02:50:15.744Z,77.74
2022-08-10T02:55:27.202Z,78.52
2022-08-10T03:00:36.776Z,77.92
2022-08-10T03:05:41.577Z,79.65
2022-08-10T03:10:46.163Z,80.45
2022-08-10T03:15:51.209Z,80.27
2022-08-10T03:20:56.663Z,79.22
2022-08-10T03:26:00.689Z,81.29
2022-08-10T03:31:03.807Z,80.80
2022-08-10T03:36:41.691Z,81.28
2022-08-10T03:41:35.951Z,81.58
2022-08-10T03:46:42.251Z,81.17
2022-08-10T03:51:49.237Z,81.42
2022-08-10T03:56:52.370Z,82.33
2022-08-10T04:02:46.061Z,81.61
2022-08-10T04:07:19.872Z,82.91
2022-08-10T04:12:22.675Z,81.91
2022-08-10T04:18:04.481Z,80.94
2022-08-10T04:22:53.609Z,80.28
2022-08-10T04:27:56.419Z,80.45
2022-08-10T04:33:02.219Z,79.39
2022-08-10T04:38:07.814Z,81.42
2022-08-10T04:43:13.379Z,77.20
2022-08-10T04:48:40.527Z,78.40
2022-08-10T04:54:05.904Z,72.77
2022-08-10T04:59:02.600Z,77.66
2022-08-10T05:04:37.109Z,80.15
2022-08-10T05:09:29.378Z,80.67
2022-08-10T05:14:31.968Z,78.73
2022-08-10T05:20:04.120Z,77.88
2022-08-10T05:24:58.314Z,75.88
2022-08-10T05:30:01.191Z,73.37
2022-08-10T05:35:05.980Z,73.04
2022-08-10T05:40:10.661Z,70.65
2022-08-10T05:45:21.178Z,71.16
2022-08-10T05:50:26.836Z,72.41
2022-08-10T05:55:32.259Z,68.91
2022-08-10T06:00:41.771Z,69.80
2022-08-10T06:05:49.207Z,69.30
2022-08-10T06:12:23.600Z,70.13
2022-08-10T06:16:20.254Z,69.83
2022-08-10T06:21:22.798Z,67.44
2022-08-10T06:26:26.596Z,67.95
2022-08-10T06:31:46.680Z,65.31
2022-08-10T06:36:54.132Z,65.95
2022-08-10T06:42:15.941Z,65.99
2022-08-10T06:47:23.728Z,64.48
2022-08-10T06:52:27.912Z,63.79
2022-08-10T06:57:35.497Z,64.49
2022-08-10T07:02:45.210Z,64.89
2022-08-10T07:07:49.094Z,64.30
2022-08-10T07:12:58.737Z,61.32
2022-08-10T07:18:02.834Z,62.22
2022-08-10T07:23:58.542Z,62.72
2022-08-10T07:28:32.759Z,61.64
2022-08-10T07:33:37.098Z,60.21
2022-08-10T07:38:41.484Z,60.80
2022-08-10T07:43:48.208Z,61.29
2022-08-10T07:49:00.357Z,59.05
2022-08-10T07:54:06.131Z,59.37
2022-08-10T07:59:11.905Z,59.03
2022-08-10T08:04:15.856Z,58.29
2022-08-10T08:09:19.362Z,58.22
2022-08-10T08:14:24.618Z,58.66
2022-08-10T08:19:37.494Z,57.70
2022-08-10T08:24:47.215Z,56.64
2022-08-10T08:29:53.061Z,57.01
2022-08-10T08:34:58.738Z,55.36
2022-08-10T08:40:02.032Z,54.60
2022-08-10T08:45:14.491Z,54.11
2022-08-10T08:50:32.547Z,52.23
2022-08-10T08:56:03.060Z,51.85
2022-08-10T09:01:42.272Z,51.69
2022-08-10T09:06:55.765Z,51.39
2022-08-10T09:12:13.576Z,49.45
2022-08-10T09:17:24.388Z,49.18
2022-08-10T09:22:34.840Z,49.06
2022-08-10T09:27:43.547Z,50.02
2022-08-10T09:36:15.668Z,47.96
2022-08-10T09:38:19.473Z,48.30
2022-08-10T09:43:31.936Z,46.73
2022-08-10T09:48:44.324Z,47.69
2022-08-10T09:54:06.114Z,46.48
2022-08-10T09:59:56.560Z,46.00
2022-08-10T10:04:48.555Z,44.45
2022-08-10T10:09:58.829Z,45.56
2022-08-10T10:15:24.073Z,43.50
2022-08-10T10:20:37.371Z,43.46
2022-08-10T10:25:50.909Z,42.96
2022-08-10T10:31:05.818Z,41.56
2022-08-10T10:36:21.779Z,38.50
2022-08-10T10:41:56.017Z,36.00
2022-08-10T10:47:10.811Z,37.02
2022-08-10T10:52:28.776Z,35.00
2022-08-10T10:58:00.546Z,34.37
2022-08-10T11:03:20.103Z,36.23
2022-08-10T11:08:29.464Z,32.91
2022-08-10T11:14:27.565Z,33.78
2022-08-10T11:19:08.750Z,39.14
2022-08-10T11:24:42.808Z,37.47
2022-08-10T11:29:49.895Z,35.74
2022-08-10T11:35:10.532Z,35.10
2022-08-10T11:40:21.318Z,38.44
2022-08-10T11:45:31.657Z,33.24
2022-08-10T11:50:40.292Z,32.99
2022-08-10T11:55:49.444Z,33.32
2022-08-10T12:00:53.638Z,35.22
2022-08-10T12:05:56.610Z,35.68
2022-08-10T12:11:00.713Z,35.02
2022-08-10T12:16:07.346Z,33.12
2022-08-10T12:21:21.557Z,33.33
2022-08-10T12:26:29.262Z,32.72
2022-08-10T12:31:36.108Z,32.70
2022-08-10T12:36:42.408Z,31.86
2022-08-10T12:42:00.286Z,33.35
2022-08-10T12:47:13.990Z,34.16
2022-08-10T12:52:20.405Z,35.40
2022-08-10T12:57:26.729Z,35.91
2022-08-10T13:02:33.411Z,36.41
2022-08-10T13:08:27.356Z,35.30
2022-08-10T13:13:03.932Z,35.20
2022-08-10T13:18:18.217Z,34.28
2022-08-10T13:23:24.482Z,34.12
2022-08-10T13:28:39.927Z,35.83
2022-08-10T13:34:38.863Z,37.95
2022-08-10T13:39:18.042Z,37.19
2022-08-10T13:44:32.224Z,36.05
2022-08-10T13:49:45.980Z,37.36
2022-08-10T13:54:49.385Z,35.17
2022-08-10T14:00:35.010Z,37.14
2022-08-10T14:05:27.520Z,36.67
2022-08-10T14:11:09.818Z,35.93
2022-08-10T14:16:06.828Z,35.20
2022-08-10T14:21:09.643Z,35.43
2022-08-10T14:26:15.868Z,36.35
2022-08-10T14:31:24.829Z,37.84
2022-08-10T14:36:34.120Z,37.32
2022-08-10T14:42:01.748Z,35.94
2022-08-10T14:47:52.606Z,33.71
2022-08-10T14:52:29.978Z,34.75
2022-08-10T14:57:33.617Z,33.84
2022-08-10T15:03:01.282Z,33.55
2022-08-10T15:08:05.107Z,33.99
2022-08-10T15:13:08.751Z,34.26
2022-08-10T15:18:34.323Z,34.27
2022-08-10T15:24:05.111Z,34.12
2022-08-10T15:29:24.057Z,34.76
2022-08-10T15:34:47.658Z,34.55
2022-08-10T15:40:25.691Z,36.17
2022-08-10T15:45:23.836Z,35.84
2022-08-10T15:50:32.942Z,35.22
2022-08-10T15:55:42.394Z,35.94
2022-08-10T16:00:51.497Z,36.47
2022-08-10T16:06:01.441Z,36.25
2022-08-10T16:11:09.110Z,36.70
2022-08-10T16:16:15.353Z,35.73
2022-08-10T16:21:21.567Z,35.71
2022-08-10T16:26:28.125Z,36.45
2022-08-10T16:31:35.684Z,36.55
2022-08-10T16:36:43.907Z,36.88
2022-08-10T16:42:05.241Z,36.67
2022-08-10T16:47:11.238Z,36.70
2022-08-10T16:52:16.858Z,35.92
2022-08-10T16:57:21.682Z,36.90
2022-08-10T17:02:26.708Z,35.85
2022-08-10T17:07:31.850Z,36.30
2022-08-10T17:12:36.227Z,35.95
2022-08-10T17:17:42.643Z,35.58
2022-08-10T17:22:50.497Z,35.98
2022-08-10T17:28:05.708Z,35.68
2022-08-10T17:33:14.816Z,36.02
2022-08-10T17:38:22.058Z,36.72
2022-08-10T17:43:58.483Z,37.72
2022-08-10T17:48:53.510Z,37.06
2022-08-10T17:53:59.211Z,37.26
2022-08-10T17:59:08.585Z,38.07
2022-08-10T18:04:18.598Z,38.05
2022-08-10T18:09:33.379Z,39.95
2022-08-10T18:14:37.760Z,39.04
2022-08-10T18:19:43.292Z,38.85
2022-08-10T18:24:48.419Z,40.81
2022-08-10T18:29:53.453Z,42.58
2022-08-10T18:35:01.009Z,43.38
2022-08-10T18:40:09.834Z,42.45
2022-08-10T18:45:15.535Z,44.72
2022-08-10T18:50:28.487Z,45.94
2022-08-10T18:55:46.254Z,45.59
2022-08-10T19:01:09.534Z,48.08
2022-08-10T19:06:23.451Z,48.59
2022-08-10T19:11:34.715Z,49.94
2022-08-10T19:16:47.921Z,50.63
2022-08-10T19:22:05.556Z,50.59
2022-08-10T19:27:15.999Z,52.03
2022-08-10T19:32:28.474Z,52.72
2022-08-10T19:37:38.028Z,53.46
2022-08-10T19:42:48.518Z,54.11
2022-08-10T19:47:56.823Z,54.46
2022-08-10T19:53:10.911Z,54.98
2022-08-10T19:58:19.838Z,56.13
2022-08-10T20:03:27.443Z,56.23
2022-08-10T20:08:36.219Z,55.42
2022-08-10T20:13:48.196Z,56.88
2022-08-10T20:18:55.329Z,56.60
2022-08-10T20:24:05.679Z,56.81
2022-08-10T20:29:16.539Z,58.00
2022-08-10T20:34:42.943Z,58.16
2022-08-10T20:39:50.072Z,58.48
2022-08-10T20:45:04.084Z,58.61
2022-08-10T20:50:18.790Z,59.08
2022-08-10T20:55:24.679Z,59.79
2022-08-10T21:00:47.458Z,60.16
2022-08-10T21:06:03.946Z,60.00
2022-08-10T21:11:15.142Z,60.75
2022-08-10T21:16:32.726Z,60.63
2022-08-10T21:21:59.541Z,61.53
2022-08-10T21:27:16.503Z,62.78
2022-08-10T21:32:35.597Z,60.94
2022-08-10T21:37:56.657Z,62.64
2022-08-10T21:43:44.131Z,63.51
2022-08-10T21:49:15.016Z,58.75
2022-08-10T21:54:41.160Z,62.81
2022-08-10T22:00:12.040Z,62.92
2022-08-10T22:05:38.939Z,62.80
2022-08-10T22:11:03.294Z,60.40
2022-08-10T22:16:32.959Z,65.74
2022-08-10T22:22:04.588Z,61.40
2022-08-10T22:27:47.513Z,64.04
2022-08-10T22:33:21.755Z,65.83
2022-08-10T22:39:02.234Z,66.77
2022-08-10T22:44:23.836Z,68.17
2022-08-10T22:49:25.974Z,68.08
2022-08-10T22:54:56.386Z,67.81
2022-08-10T22:59:59.519Z,68.26
2022-08-10T23:05:09.132Z,67.73
2022-08-10T23:10:15.217Z,67.39
2022-08-10T23:15:44.116Z,65.54
2022-08-10T23:20:48.803Z,64.48
2022-08-10T23:25:58.150Z,64.45
2022-08-10T23:31:02.611Z,67.16
2022-08-10T23:36:34.320Z,65.72
2022-08-10T23:41:33.167Z,67.49
2022-08-10T23:46:39.726Z,67.81
2022-08-10T23:51:55.472Z,70.16
2022-08-10T23:57:02.238Z,68.13
